Time;durP1;ratioP1;P1;durP2;ratioP2;P2;SDS_P1;SDS_P2;PMS_P1;PMS_P2;Temp;Humidity;BMP_temperature;BMP_pressure;BME280_temperature;BME280_humidity;BME280_pressure;Samples;Min_cycle;Max_cycle;Signal;HPM_P1;HPM_P2
2023/06/19 00:01:46;;;;;;;13.07;11.77;;;;;;;23.53;45.88;95856.28;4964105;28;20205;-72
2023/06/19 00:04:11;;;;;;;13.80;12.47;;;;;;;23.48;46.41;95858.59;4968620;28;20215;-70
2023/06/19 00:06:37;;;;;;;13.43;12.03;;;;;;;23.46;46.68;95858.78;4962815;28;20197;-70
2023/06/19 00:09:03;;;;;;;13.67;12.30;;;;;;;23.44;47.08;95861.63;4964821;28;20185;-71
2023/06/19 00:11:28;;;;;;;19.40;11.73;;;;;;;23.46;47.05;95856.94;4965677;28;20283;-70
2023/06/19 00:13:54;;;;;;;17.53;12.47;;;;;;;23.41;47.52;95859.25;4967698;28;20195;-71
2023/06/19 00:16:19;;;;;;;14.20;12.63;;;;;;;23.42;47.14;95852.91;4964883;28;20200;-72
2023/06/19 00:18:45;;;;;;;13.47;12.17;;;;;;;23.36;47.51;95866.06;4965560;28;20188;-73
2023/06/19 00:21:11;;;;;;;12.87;11.67;;;;;;;23.34;47.59;95868.06;4967967;28;20375;-71
2023/06/19 00:23:36;;;;;;;14.37;12.30;;;;;;;23.31;47.71;95866.56;4964352;28;20576;-73
2023/06/19 00:26:03;;;;;;;12.43;11.23;;;;;;;23.24;47.31;95860.16;4968778;28;20208;-70
2023/06/19 00:28:31;;;;;;;16.33;13.37;;;;;;;23.26;47.17;95871.56;4963776;28;20586;-70
2023/06/19 00:30:57;;;;;;;13.47;12.20;;;;;;;23.13;47.21;95866.63;4965592;28;20465;-70
2023/06/19 00:33:22;;;;;;;14.00;12.33;;;;;;;23.08;46.58;95871.63;4964309;28;20433;-70
2023/06/19 00:35:50;;;;;;;13.03;11.73;;;;;;;22.98;46.86;95869.03;4968605;28;20181;-71
2023/06/19 00:38:15;;;;;;;13.30;11.50;;;;;;;22.99;47.19;95870.72;4965073;28;20207;-69
2023/06/19 00:40:41;;;;;;;13.27;12.00;;;;;;;23.00;47.01;95867.03;4963736;28;20464;-73
2023/06/19 00:43:06;;;;;;;27.93;13.00;;;;;;;23.08;46.71;95860.06;4967095;28;20701;-71
2023/06/19 00:45:32;;;;;;;11.90;10.77;;;;;;;22.98;47.31;95868.16;4966931;28;20201;-69
2023/06/19 00:47:59;;;;;;;14.07;12.53;;;;;;;22.91;47.48;95867.13;4969399;28;20316;-72
2023/06/19 00:50:25;;;;;;;21.90;12.70;;;;;;;22.96;47.15;95863.00;4967890;28;20436;-70
2023/06/19 00:52:51;;;;;;;21.40;12.30;;;;;;;22.98;47.01;95874.38;4961244;28;20457;-71
2023/06/19 00:55:17;;;;;;;13.40;12.20;;;;;;;23.04;46.90;95876.44;4967738;28;20503;-72
2023/06/19 00:57:43;;;;;;;13.40;12.00;;;;;;;22.95;46.80;95871.16;4968703;28;20181;-71
2023/06/19 01:00:12;;;;;;;12.60;11.50;;;;;;;22.74;47.17;95877.69;4959072;28;20436;-72
2023/06/19 01:02:38;;;;;;;13.17;12.00;;;;;;;22.80;46.91;95874.41;4969045;28;20523;-71
2023/06/19 01:05:04;;;;;;;14.23;12.20;;;;;;;22.83;46.20;95874.09;4967692;28;20803;-70
2023/06/19 01:08:10;;;;;;;12.87;11.47;;;;;;;22.85;45.98;95875.78;4971944;28;20433;-72
2023/06/19 01:10:40;;;;;;;12.30;11.30;;;;;;;22.95;45.43;95874.66;4965560;28;20193;-72
2023/06/19 01:13:11;;;;;;;12.27;11.17;;;;;;;22.87;45.38;95877.31;4967974;28;20440;-70
2023/06/19 01:15:38;;;;;;;12.47;11.37;;;;;;;22.82;45.32;95879.63;4969700;28;20440;-69
2023/06/19 01:18:04;;;;;;;14.20;12.90;;;;;;;22.86;45.65;95880.97;4963202;28;20448;-70
2023/06/19 01:20:30;;;;;;;19.10;12.50;;;;;;;22.80;45.75;95868.22;4961524;28;20438;-71
2023/06/19 01:22:56;;;;;;;29.33;13.73;;;;;;;22.75;45.84;95875.88;4963776;28;20270;-71
2023/06/19 01:25:23;;;;;;;14.57;12.17;;;;;;;22.73;45.81;95875.19;4983066;28;20547;-70
2023/06/19 01:27:49;;;;;;;43.33;15.20;;;;;;;22.79;45.56;95864.69;4995215;28;20178;-71
2023/06/19 01:30:14;;;;;;;13.37;11.60;;;;;;;22.81;45.44;95875.25;4966547;28;20448;-71
2023/06/19 01:32:49;;;;;;;21.40;11.67;;;;;;;22.79;45.58;95866.53;4967108;28;20197;-70
2023/06/19 01:35:17;;;;;;;12.57;11.47;;;;;;;22.74;46.30;95876.88;4967044;28;20551;-71
2023/06/19 01:37:44;;;;;;;12.83;11.63;;;;;;;22.70;46.23;95872.81;4967428;28;20484;-73
2023/06/19 01:40:12;;;;;;;17.30;12.70;;;;;;;22.71;46.15;95874.50;4966290;28;20989;-71
2023/06/19 01:42:39;;;;;;;12.30;11.00;;;;;;;22.60;46.39;95878.25;4963071;28;20457;-72
2023/06/19 01:45:07;;;;;;;32.20;14.63;;;;;;;22.59;46.46;95873.91;4965515;28;20436;-71
2023/06/19 01:47:33;;;;;;;12.63;11.53;;;;;;;22.57;46.31;95876.72;4965880;28;20961;-73
2023/06/19 01:49:58;;;;;;;21.33;15.10;;;;;;;22.62;46.51;95882.44;4965097;28;20445;-70
2023/06/19 01:52:24;;;;;;;26.30;14.40;;;;;;;22.52;46.54;95873.69;4961185;28;20281;-75
2023/06/19 01:54:50;;;;;;;14.70;11.20;;;;;;;22.51;46.68;95879.16;4959931;28;20216;-70
2023/06/19 01:57:16;;;;;;;12.67;11.60;;;;;;;22.53;46.76;95880.69;4960367;28;20425;-71
2023/06/19 01:59:41;;;;;;;14.07;12.77;;;;;;;22.59;46.62;95881.94;4966374;28;20463;-68
2023/06/19 02:02:07;;;;;;;28.43;12.80;;;;;;;22.60;46.65;95880.94;4965295;28;20767;-71
2023/06/19 02:04:33;;;;;;;15.27;12.90;;;;;;;22.72;46.23;95879.69;4966445;28;20270;-70
2023/06/19 02:06:59;;;;;;;13.87;12.53;;;;;;;22.54;46.67;95873.53;4960231;28;20185;-70
2023/06/19 02:09:24;;;;;;;27.17;14.43;;;;;;;22.60;46.67;95873.72;4966758;28;20455;-71
2023/06/19 02:11:49;;;;;;;21.33;12.70;;;;;;;22.58;46.93;95880.22;4993944;28;20679;-71
2023/06/19 02:14:15;;;;;;;13.53;12.33;;;;;;;22.51;46.58;95881.84;4964232;28;20177;-69
2023/06/19 02:16:43;;;;;;;13.83;12.30;;;;;;;22.56;46.46;95892.91;4960335;28;20178;-68
2023/06/19 02:19:10;;;;;;;16.47;11.90;;;;;;;22.31;47.09;95891.88;4965665;28;20544;-70
2023/06/19 02:21:35;;;;;;;13.03;11.83;;;;;;;22.38;46.89;95896.44;4966180;28;20467;-71
2023/06/19 02:24:01;;;;;;;13.53;11.87;;;;;;;22.39;46.69;95899.94;4964711;28;20457;-70
2023/06/19 02:26:28;;;;;;;25.17;12.37;;;;;;;22.49;46.77;95899.88;4963717;28;20181;-72
2023/06/19 02:28:54;;;;;;;15.20;13.70;;;;;;;22.57;46.48;95900.78;4966018;28;20182;-71
2023/06/19 02:31:21;;;;;;;17.23;12.80;;;;;;;22.64;46.31;95897.53;4959438;28;20487;-70
2023/06/19 02:33:46;;;;;;;13.53;12.10;;;;;;;22.46;46.53;95900.19;4963991;28;20181;-71
2023/06/19 02:36:11;;;;;;;19.27;12.80;;;;;;;22.31;46.86;95900.72;4963462;28;21025;-70
2023/06/19 02:38:37;;;;;;;17.73;12.43;;;;;;;22.32;46.77;95907.78;4964442;28;20208;-72
2023/06/19 02:41:02;;;;;;;14.17;12.63;;;;;;;22.32;46.63;95906.91;4958240;28;20201;-73
2023/06/19 02:43:27;;;;;;;13.80;12.50;;;;;;;22.30;46.86;95923.13;4957427;28;20198;-71
2023/06/19 02:45:53;;;;;;;37.03;13.10;;;;;;;22.27;46.78;95922.56;4961361;28;21143;-73
2023/06/19 02:48:19;;;;;;;16.27;13.43;;;;;;;22.21;47.05;95947.25;4962834;28;20194;-72
2023/06/19 02:50:44;;;;;;;17.97;12.57;;;;;;;22.34;46.61;95961.91;4954916;28;20587;-70
2023/06/19 02:53:11;;;;;;;25.90;12.67;;;;;;;22.27;47.19;95954.63;4965761;28;20524;-71
2023/06/19 02:55:36;;;;;;;19.13;12.90;;;;;;;22.25;47.17;95967.31;4965579;28;20296;-69
2023/06/19 02:58:03;;;;;;;13.23;11.87;;;;;;;22.04;47.69;95965.72;4968230;28;20547;-70
2023/06/19 03:00:28;;;;;;;13.67;12.13;;;;;;;22.06;47.54;95969.06;4969660;28;20181;-71
2023/06/19 03:02:54;;;;;;;26.20;14.00;;;;;;;22.12;47.35;95970.31;4969479;28;20511;-71
2023/06/19 03:05:19;;;;;;;33.20;14.30;;;;;;;22.07;46.81;95970.75;4970410;28;20185;-71
2023/06/19 03:07:45;;;;;;;32.03;13.50;;;;;;;22.03;46.96;95977.38;4969793;28;20177;-71
2023/06/19 03:10:10;;;;;;;30.10;13.90;;;;;;;22.05;46.71;95972.75;4970201;28;20185;-70
2023/06/19 03:12:36;;;;;;;20.43;12.50;;;;;;;22.01;46.93;95974.00;4970876;28;20225;-71
2023/06/19 03:15:01;;;;;;;25.63;13.50;;;;;;;22.08;46.84;95972.44;4970494;28;20174;-70
2023/06/19 03:17:27;;;;;;;19.67;12.63;;;;;;;22.04;47.09;95978.22;4970846;28;20674;-69
2023/06/19 03:19:52;;;;;;;25.20;13.07;;;;;;;22.04;47.20;95981.75;4970717;28;20378;-71
2023/06/19 03:22:19;;;;;;;14.00;12.07;;;;;;;22.08;47.12;95985.78;4970811;28;20267;-72
2023/06/19 03:24:45;;;;;;;22.70;13.03;;;;;;;22.26;46.70;95985.03;4970118;28;20781;-72
2023/06/19 03:27:10;;;;;;;43.00;15.23;;;;;;;22.33;46.55;95988.78;4970398;28;20512;-70
2023/06/19 03:29:36;;;;;;;23.70;13.53;;;;;;;22.31;46.57;95988.94;4970161;28;20281;-70
2023/06/19 03:32:01;;;;;;;29.77;13.47;;;;;;;22.27;46.68;95984.03;4968715;28;20201;-69
2023/06/19 03:34:26;;;;;;;22.47;14.80;;;;;;;22.27;46.92;95984.03;4969606;28;20624;-70
2023/06/19 03:36:52;;;;;;;20.17;13.30;;;;;;;22.31;46.67;95988.09;4970935;28;20256;-70
2023/06/19 03:39:17;;;;;;;22.10;14.30;;;;;;;22.22;47.06;95978.31;4971044;28;20562;-70
2023/06/19 03:41:43;;;;;;;18.13;12.70;;;;;;;22.22;46.85;95978.31;4970265;28;20198;-71
2023/06/19 03:44:08;;;;;;;57.07;16.20;;;;;;;22.18;46.80;95978.59;4969856;28;20304;-69
2023/06/19 03:46:33;;;;;;;41.40;14.37;;;;;;;22.42;46.32;95979.88;4970269;28;20280;-68
2023/06/19 03:48:59;;;;;;;53.97;16.20;;;;;;;22.41;46.63;95986.19;4970247;28;20422;-70
2023/06/19 03:51:24;;;;;;;19.17;13.60;;;;;;;22.41;46.39;95988.88;4970245;28;20236;-71
2023/06/19 03:53:50;;;;;;;40.57;13.43;;;;;;;22.41;46.87;95988.88;4969599;28;20287;-71
2023/06/19 03:56:15;;;;;;;22.90;13.43;;;;;;;22.38;46.87;95997.19;4970116;28;20249;-68
2023/06/19 03:58:40;;;;;;;13.03;11.60;;;;;;;22.55;46.31;95991.03;4970044;28;20174;-70
2023/06/19 04:01:06;;;;;;;29.70;14.00;;;;;;;22.60;46.63;95996.75;4969340;28;20688;-69
2023/06/19 04:03:31;;;;;;;27.10;14.73;;;;;;;22.64;46.55;95993.81;4970103;28;20197;-70
2023/06/19 04:05:57;;;;;;;27.57;12.80;;;;;;;22.71;46.35;96001.06;4971412;28;20536;-70
2023/06/19 04:08:22;;;;;;;22.20;14.33;;;;;;;22.84;46.08;95992.63;4971377;28;20642;-71
2023/06/19 04:10:48;;;;;;;17.93;12.97;;;;;;;22.76;46.59;95989.91;4971096;28;20185;-71
2023/06/19 04:13:13;;;;;;;15.93;11.50;;;;;;;22.57;46.95;95994.41;4973280;28;20228;-73
2023/06/19 04:15:38;;;;;;;26.57;13.40;;;;;;;22.50;47.31;96000.50;4971970;28;20217;-72
2023/06/19 04:18:04;;;;;;;36.93;14.40;;;;;;;22.34;47.68;96001.16;4970099;28;20739;-70
2023/06/19 04:20:29;;;;;;;44.03;17.13;;;;;;;22.50;47.57;96006.69;4968835;28;20208;-71
2023/06/19 04:22:55;;;;;;;28.73;13.27;;;;;;;22.56;47.46;96023.94;4968703;28;20221;-70
2023/06/19 04:25:20;;;;;;;18.13;12.93;;;;;;;22.69;47.32;96018.25;4968580;28;20549;-69
2023/06/19 04:27:45;;;;;;;13.43;12.03;;;;;;;22.75;46.97;96010.47;4969178;28;20177;-69
2023/06/19 04:30:11;;;;;;;13.20;11.30;;;;;;;22.93;46.88;96013.13;4967842;28;20188;-70
2023/06/19 04:32:40;;;;;;;20.80;13.07;;;;;;;23.08;46.45;96008.13;4961612;28;20697;-69
2023/06/19 04:35:09;;;;;;;15.70;12.33;;;;;;;23.16;46.48;96012.69;4956862;28;20182;-71
2023/06/19 04:37:35;;;;;;;17.13;14.03;;;;;;;23.35;46.12;96023.22;4963589;28;20467;-71
2023/06/19 04:40:00;;;;;;;32.17;14.70;;;;;;;23.31;46.31;96015.66;4965833;28;20922;-70
2023/06/19 04:42:27;;;;;;;20.57;14.90;;;;;;;23.39;46.21;96021.91;4963838;28;20209;-68
2023/06/19 04:44:52;;;;;;;20.20;12.50;;;;;;;23.58;45.46;96017.38;4964590;28;20204;-70
2023/06/19 04:47:20;;;;;;;30.07;13.87;;;;;;;23.55;45.85;96026.56;4965676;28;20444;-71
2023/06/19 04:49:46;;;;;;;18.20;12.00;;;;;;;23.38;46.35;96028.25;4981903;28;21034;-71
2023/06/19 04:52:11;;;;;;;24.93;14.07;;;;;;;23.26;46.65;96024.16;4983908;28;20472;-71
2023/06/19 04:54:37;;;;;;;14.00;11.30;;;;;;;23.33;46.61;96016.34;4983230;28;20526;-68
2023/06/19 04:57:02;;;;;;;25.70;12.43;;;;;;;23.44;46.46;96027.66;4982773;28;20189;-70
2023/06/19 04:59:30;;;;;;;25.10;13.23;;;;;;;23.49;46.25;96031.69;4987278;28;20211;-71
2023/06/19 05:01:55;;;;;;;13.40;12.10;;;;;;;23.77;45.82;96027.91;4986414;28;20207;-70
2023/06/19 05:04:22;;;;;;;32.00;13.00;;;;;;;23.53;46.21;96027.69;4985885;28;20468;-70
2023/06/19 05:06:48;;;;;;;35.80;12.47;;;;;;;23.43;46.66;96030.47;4983673;28;20202;-71
2023/06/19 05:09:13;;;;;;;25.40;12.20;;;;;;;23.30;47.19;96038.91;4975279;28;20802;-71
2023/06/19 05:11:39;;;;;;;14.13;10.63;;;;;;;23.29;47.04;96041.75;4972190;28;20241;-71
2023/06/19 05:14:04;;;;;;;16.87;11.80;;;;;;;23.17;47.55;96041.13;4982311;28;20576;-70
2023/06/19 05:16:29;;;;;;;19.73;13.23;;;;;;;23.05;48.01;96051.25;4984090;28;20177;-68
2023/06/19 05:18:55;;;;;;;14.13;12.57;;;;;;;22.96;48.40;96049.44;4983193;28;20229;-68
2023/06/19 05:21:20;;;;;;;15.57;12.63;;;;;;;22.91;48.64;96047.22;4974037;28;20811;-69
2023/06/19 05:23:50;;;;;;;14.13;11.17;;;;;;;22.98;48.46;96045.66;4973061;28;20607;-67
2023/06/19 05:26:25;;;;;;;14.13;11.40;;;;;;;22.97;48.32;96045.78;4975076;28;20699;-70
2023/06/19 05:28:51;;;;;;;18.27;12.17;;;;;;;22.98;48.52;96048.31;4984959;28;20438;-70
2023/06/19 05:31:18;;;;;;;20.10;13.23;;;;;;;22.86;48.64;96046.00;4978459;28;20452;-68
2023/06/19 05:33:43;;;;;;;22.70;12.80;;;;;;;22.82;48.93;96045.50;4982195;28;20181;-69
2023/06/19 05:36:09;;;;;;;40.07;15.60;;;;;;;22.86;48.76;96046.00;4986783;28;20519;-69
2023/06/19 05:38:34;;;;;;;29.50;12.67;;;;;;;22.82;48.72;96053.50;4984790;28;20185;-69
2023/06/19 05:41:00;;;;;;;22.27;12.80;;;;;;;22.88;48.62;96060.06;4984935;28;20200;-68
2023/06/19 05:43:26;;;;;;;20.10;10.87;;;;;;;22.87;48.50;96053.91;4984240;28;20196;-69
2023/06/19 05:45:53;;;;;;;19.87;12.83;;;;;;;22.93;48.53;96057.78;4986497;28;20179;-68
2023/06/19 05:48:18;;;;;;;23.80;13.03;;;;;;;22.96;48.40;96073.53;4985325;28;20180;-68
2023/06/19 05:50:44;;;;;;;13.30;11.90;;;;;;;22.96;48.38;96081.56;4984938;28;20495;-69
2023/06/19 05:53:09;;;;;;;16.80;12.10;;;;;;;22.94;48.49;96086.25;4983381;28;20204;-70
2023/06/19 05:55:34;;;;;;;12.13;11.10;;;;;;;22.82;48.78;96083.78;4983779;28;20250;-71
2023/06/19 05:58:00;;;;;;;16.47;12.20;;;;;;;22.96;48.69;96092.25;4980686;28;20311;-70
2023/06/19 06:00:26;;;;;;;25.57;12.83;;;;;;;23.04;48.47;96092.38;4983251;28;20224;-70
2023/06/19 06:02:51;;;;;;;24.03;13.00;;;;;;;23.03;48.63;96102.25;4984216;28;20231;-69
2023/06/19 06:05:18;;;;;;;15.50;12.80;;;;;;;23.01;48.64;96103.41;4984175;28;20197;-70
2023/06/19 06:07:44;;;;;;;20.87;12.73;;;;;;;23.00;48.71;96101.72;4983307;28;20615;-70
2023/06/19 06:10:10;;;;;;;13.67;12.20;;;;;;;23.09;48.78;96110.66;4979687;28;20432;-69
2023/06/19 06:12:36;;;;;;;14.83;12.77;;;;;;;23.12;48.54;96107.69;4973536;28;20205;-70
2023/06/19 06:15:05;;;;;;;16.77;13.50;;;;;;;22.99;48.81;96113.41;4982048;28;20428;-69
2023/06/19 06:17:31;;;;;;;18.30;12.03;;;;;;;22.97;49.00;96118.88;4979404;28;20191;-70
2023/06/19 06:19:56;;;;;;;25.77;12.97;;;;;;;22.92;49.20;96120.34;4982219;28;20447;-69
2023/06/19 06:22:21;;;;;;;18.30;12.40;;;;;;;22.86;49.24;96126.28;4980068;28;20279;-68
2023/06/19 06:24:47;;;;;;;13.97;12.47;;;;;;;22.86;49.10;96129.78;4978550;28;20299;-69
2023/06/19 06:27:13;;;;;;;15.13;10.80;;;;;;;22.95;48.58;96134.25;4983699;28;20195;-69
2023/06/19 06:29:39;;;;;;;12.53;10.87;;;;;;;22.94;48.91;96137.91;4982015;28;20844;-69
2023/06/19 06:32:06;;;;;;;13.23;10.87;;;;;;;23.09;48.70;96132.91;4984280;28;20216;-70
2023/06/19 06:34:32;;;;;;;14.73;11.23;;;;;;;23.04;48.71;96130.69;4987965;28;20176;-69
2023/06/19 06:36:58;;;;;;;19.60;11.20;;;;;;;23.02;48.89;96132.69;4988821;28;20507;-71
2023/06/19 06:39:24;;;;;;;14.90;10.93;;;;;;;23.00;48.80;96141.84;4988379;28;21166;-69
2023/06/19 06:41:49;;;;;;;34.73;12.90;;;;;;;22.92;49.10;96142.56;4989028;28;20196;-69
2023/06/19 06:44:14;;;;;;;16.43;10.57;;;;;;;22.99;49.04;96138.34;4988228;28;20246;-69
2023/06/19 06:46:40;;;;;;;21.63;11.43;;;;;;;23.04;48.85;96141.41;4987813;28;20185;-70
2023/06/19 06:49:05;;;;;;;15.20;10.20;;;;;;;23.34;48.32;96150.09;4988615;28;20588;-68
2023/06/19 06:51:31;;;;;;;15.60;11.10;;;;;;;23.48;47.86;96131.78;4989942;28;20222;-70
2023/06/19 06:53:56;;;;;;;24.73;10.87;;;;;;;23.74;47.29;96138.06;4990101;28;20183;-68
2023/06/19 06:56:21;;;;;;;14.07;9.77;;;;;;;23.81;47.02;96138.28;4989960;28;20172;-69
2023/06/19 06:58:47;;;;;;;18.20;10.93;;;;;;;24.01;46.42;96138.94;4989470;28;20200;-70
2023/06/19 07:01:12;;;;;;;37.07;13.33;;;;;;;24.08;46.46;96132.78;4989772;28;20235;-70
2023/06/19 07:03:39;;;;;;;17.73;9.50;;;;;;;24.15;46.14;96138.34;4989557;28;20287;-69
2023/06/19 07:06:04;;;;;;;26.77;11.10;;;;;;;24.34;45.77;96142.66;4989769;28;20185;-70
2023/06/19 07:08:30;;;;;;;11.97;9.67;;;;;;;24.59;45.37;96141.00;4989761;28;20424;-71
2023/06/19 07:10:55;;;;;;;12.97;9.03;;;;;;;24.47;45.80;96139.56;4989662;28;20240;-69
2023/06/19 07:13:21;;;;;;;9.57;7.80;;;;;;;24.27;45.57;96138.94;4989972;28;20211;-70
2023/06/19 07:15:46;;;;;;;23.67;8.73;;;;;;;24.21;45.83;96128.81;4989569;28;20523;-69
2023/06/19 07:18:11;;;;;;;15.20;7.80;;;;;;;24.03;46.43;96139.63;4990335;28;20627;-69
2023/06/19 07:20:37;;;;;;;9.87;6.80;;;;;;;23.95;46.62;96134.19;4989666;28;20181;-69
2023/06/19 07:23:02;;;;;;;8.90;7.10;;;;;;;23.95;46.57;96142.22;4989552;28;20214;-70
2023/06/19 07:25:28;;;;;;;10.40;7.43;;;;;;;24.00;46.59;96138.09;4989218;28;20704;-69
2023/06/19 07:27:53;;;;;;;9.13;6.93;;;;;;;23.92;46.88;96143.38;4989326;28;20215;-70
2023/06/19 07:30:19;;;;;;;11.20;6.90;;;;;;;23.93;47.05;96138.88;4989804;28;20185;-68
2023/06/19 07:32:44;;;;;;;15.43;7.40;;;;;;;24.00;46.83;96143.47;4990118;28;20196;-72
2023/06/19 07:35:11;;;;;;;18.00;8.10;;;;;;;24.13;46.67;96136.84;4988801;28;20187;-72
2023/06/19 07:37:36;;;;;;;7.40;6.67;;;;;;;24.08;47.03;96146.19;4989211;28;20625;-73
2023/06/19 07:40:02;;;;;;;12.03;7.63;;;;;;;24.07;47.02;96136.47;4989521;28;20419;-72
2023/06/19 07:42:27;;;;;;;12.77;7.77;;;;;;;24.18;46.49;96140.72;4989057;28;20197;-71
2023/06/19 07:44:52;;;;;;;12.13;8.13;;;;;;;24.27;46.37;96142.44;4989049;28;20212;-71
2023/06/19 07:47:18;;;;;;;12.90;7.90;;;;;;;24.29;46.74;96137.78;4987023;28;20530;-73
2023/06/19 07:49:45;;;;;;;10.97;7.83;;;;;;;24.33;46.24;96138.31;4989175;28;20172;-72
2023/06/19 07:52:10;;;;;;;17.20;8.77;;;;;;;24.56;45.91;96140.44;4988171;28;20197;-73
2023/06/19 07:54:36;;;;;;;12.70;8.70;;;;;;;24.74;45.47;96140.38;4988619;28;20486;-71
2023/06/19 07:57:02;;;;;;;27.27;10.60;;;;;;;24.78;45.52;96128.28;4988771;28;20192;-74
2023/06/19 07:59:27;;;;;;;11.83;7.73;;;;;;;24.80;45.82;96129.81;4988705;28;20199;-73
2023/06/19 08:01:52;;;;;;;9.20;8.30;;;;;;;25.00;45.23;96129.56;5015849;28;20196;-76
2023/06/19 08:04:18;;;;;;;10.60;9.30;;;;;;;25.02;44.83;96136.44;4987385;28;20212;-73
2023/06/19 08:06:43;;;;;;;27.53;10.40;;;;;;;24.93;45.46;96132.06;4980495;28;20404;-74
2023/06/19 08:09:09;;;;;;;9.37;7.73;;;;;;;24.87;45.44;96127.31;4986842;28;20184;-72
2023/06/19 08:11:35;;;;;;;27.57;10.43;;;;;;;24.91;44.94;96134.06;4988461;28;20219;-74
2023/06/19 08:14:00;;;;;;;20.20;8.13;;;;;;;24.94;45.09;96133.72;4989185;28;20635;-71
2023/06/19 08:16:26;;;;;;;9.73;8.23;;;;;;;25.01;45.25;96132.06;4989209;28;20455;-71
2023/06/19 08:18:51;;;;;;;34.20;9.63;;;;;;;25.05;45.42;96132.59;4989306;28;20212;-73
2023/06/19 08:21:17;;;;;;;27.47;9.33;;;;;;;24.96;45.30;96137.09;4990003;28;20212;-71
2023/06/19 08:23:43;;;;;;;14.47;9.13;;;;;;;25.10;45.04;96135.63;4989494;28;20203;-73
2023/06/19 08:26:10;;;;;;;16.77;9.10;;;;;;;25.10;44.98;96131.09;4989243;28;20185;-72
2023/06/19 08:28:37;;;;;;;9.30;7.23;;;;;;;25.09;45.37;96137.47;4989219;28;20428;-72
2023/06/19 08:31:02;;;;;;;10.83;8.17;;;;;;;25.22;44.89;96130.81;4988841;28;20440;-71
2023/06/19 08:33:28;;;;;;;21.90;8.07;;;;;;;25.40;44.27;96131.50;4988584;28;20419;-74
2023/06/19 08:35:53;;;;;;;11.03;8.33;;;;;;;25.95;43.15;96121.97;4988165;28;20188;-72
2023/06/19 08:38:19;;;;;;;16.13;8.67;;;;;;;26.39;42.09;96133.16;4988109;28;20949;-71
2023/06/19 08:40:45;;;;;;;12.83;7.80;;;;;;;26.43;41.79;96130.94;4988335;28;20177;-72
2023/06/19 08:43:10;;;;;;;18.73;7.40;;;;;;;26.34;42.43;96111.31;4987914;28;20642;-71
2023/06/19 08:45:36;;;;;;;17.53;7.60;;;;;;;26.17;42.48;96115.03;4988004;28;20439;-71
2023/06/19 08:48:08;;;;;;;11.73;6.83;;;;;;;26.06;42.31;96110.88;4988240;28;20579;-71
2023/06/19 08:50:33;;;;;;;9.23;6.80;;;;;;;26.10;42.05;96122.09;4988001;28;20180;-72
2023/06/19 08:52:59;;;;;;;19.53;8.10;;;;;;;26.18;42.33;96114.03;4987576;28;20428;-71
2023/06/19 08:55:25;;;;;;;6.87;6.27;;;;;;;26.59;40.92;96108.56;4987524;28;20194;-71
2023/06/19 08:57:52;;;;;;;9.43;6.80;;;;;;;26.96;40.20;96107.88;4988834;28;20239;-71
2023/06/19 09:00:25;;;;;;;17.97;6.50;;;;;;;27.11;39.88;96110.66;4991185;28;20407;-72
2023/06/19 09:02:51;;;;;;;13.33;6.27;;;;;;;27.21;39.65;96113.16;4989875;28;20491;-72
2023/06/19 09:05:18;;;;;;;11.10;6.50;;;;;;;27.55;39.18;96109.22;4990885;28;20427;-74
2023/06/19 09:07:53;;;;;;;9.10;6.00;;;;;;;27.71;38.80;96105.53;5019340;28;20418;-72
2023/06/19 09:10:19;;;;;;;14.70;6.90;;;;;;;27.83;38.20;96104.16;4986157;28;20439;-72
2023/06/19 09:12:57;;;;;;;16.83;6.23;;;;;;;27.83;38.18;96102.28;4978784;28;20505;-72
2023/06/19 09:15:23;;;;;;;29.20;8.30;;;;;;;27.91;38.22;96101.38;4977284;28;20493;-71
2023/06/19 09:18:09;;;;;;;11.23;7.33;;;;;;;28.10;37.99;96099.16;4989299;28;20441;-71
2023/06/19 09:20:44;;;;;;;22.80;7.67;;;;;;;28.27;37.50;96096.09;4981101;28;20450;-72
2023/06/19 09:23:11;;;;;;;11.40;6.20;;;;;;;28.44;37.05;96109.41;4987341;28;20454;-71
2023/06/19 09:25:54;;;;;;;11.23;6.20;;;;;;;28.53;36.79;96094.84;4986476;28;20442;-71
2023/06/19 09:28:27;;;;;;;15.97;6.77;;;;;;;28.45;36.86;96093.03;4987904;28;20889;-72
2023/06/19 09:31:00;;;;;;;9.80;5.83;;;;;;;28.55;37.11;96100.06;4988810;28;20417;-72
2023/06/19 09:33:31;;;;;;;10.10;5.80;;;;;;;28.27;37.11;96090.69;4988651;28;20892;-69
2023/06/19 09:35:58;;;;;;;18.40;6.83;;;;;;;28.31;37.09;96085.78;4991668;28;20425;-70
2023/06/19 09:38:26;;;;;;;16.10;7.50;;;;;;;28.53;36.86;96084.03;4988665;28;20411;-75
2023/06/19 09:40:53;;;;;;;24.33;7.90;;;;;;;28.36;37.29;96077.97;4987979;28;20880;-69
2023/06/19 09:43:23;;;;;;;8.73;6.20;;;;;;;28.41;37.35;96083.63;4987914;28;20453;-70
2023/06/19 09:45:50;;;;;;;17.03;6.27;;;;;;;28.55;37.10;96086.56;4987584;28;20999;-72
2023/06/19 09:48:20;;;;;;;11.63;6.07;;;;;;;28.67;37.09;96085.06;4987124;28;20510;-69
2023/06/19 09:50:50;;;;;;;21.77;7.00;;;;;;;28.44;37.59;96088.69;4987179;28;20423;-71
2023/06/19 09:53:18;;;;;;;10.37;6.20;;;;;;;28.45;37.80;96084.94;4987654;28;20419;-71
2023/06/19 09:55:44;;;;;;;17.40;6.70;;;;;;;28.53;37.38;96081.34;4988838;28;21023;-71
2023/06/19 09:58:10;;;;;;;10.80;6.20;;;;;;;28.48;37.34;96084.59;4986592;28;20415;-71
2023/06/19 10:00:37;;;;;;;13.43;6.40;;;;;;;28.55;37.63;96081.16;4994318;28;20644;-70
2023/06/19 10:03:04;;;;;;;16.07;6.93;;;;;;;28.66;36.89;96078.81;4988148;28;20540;-71
2023/06/19 10:05:32;;;;;;;18.97;6.70;;;;;;;28.55;37.54;96073.88;4986791;28;20477;-72
2023/06/19 10:07:59;;;;;;;7.63;6.00;;;;;;;28.64;37.23;96080.03;4989350;28;20493;-72
2023/06/19 10:10:28;;;;;;;7.00;5.70;;;;;;;28.71;36.80;96075.56;4982057;28;20446;-72
2023/06/19 10:12:57;;;;;;;8.07;6.33;;;;;;;28.79;36.62;96078.13;4972394;28;20456;-73
2023/06/19 10:15:32;;;;;;;15.47;6.80;;;;;;;28.87;36.16;96088.03;5001071;28;20476;-74
2023/06/19 10:18:02;;;;;;;6.83;6.13;;;;;;;28.96;35.77;96083.31;4986974;28;21224;-69
2023/06/19 10:20:38;;;;;;;11.57;6.03;;;;;;;28.65;35.59;96082.53;4986868;28;20421;-71
2023/06/19 10:23:06;;;;;;;13.90;6.13;;;;;;;28.88;35.79;96084.28;4993132;28;20509;-70
2023/06/19 10:25:34;;;;;;;6.23;5.50;;;;;;;28.62;36.37;96076.69;4988265;28;20497;-70
2023/06/19 10:28:00;;;;;;;6.43;5.77;;;;;;;28.07;36.84;96076.09;4986166;28;20432;-71
2023/06/19 10:30:25;;;;;;;11.87;5.60;;;;;;;28.13;37.22;96077.22;4987041;28;20435;-71
2023/06/19 10:32:51;;;;;;;22.07;7.07;;;;;;;28.49;36.37;96080.88;4985907;28;20461;-70
2023/06/19 10:35:21;;;;;;;12.30;6.87;;;;;;;28.40;36.10;96073.88;4985342;28;20191;-71
2023/06/19 10:37:47;;;;;;;8.53;5.70;;;;;;;28.25;36.72;96075.72;4985545;28;20173;-70
2023/06/19 10:40:12;;;;;;;7.93;5.57;;;;;;;28.29;36.19;96068.94;4986198;28;20423;-68
2023/06/19 10:42:42;;;;;;;10.67;6.10;;;;;;;27.77;37.26;96062.53;4985973;28;20452;-73
2023/06/19 10:45:16;;;;;;;13.30;7.40;;;;;;;27.95;37.39;96075.72;4985281;28;20176;-75
2023/06/19 10:47:43;;;;;;;7.20;5.97;;;;;;;27.43;38.76;96065.69;4987831;28;20529;-69
2023/06/19 10:50:13;;;;;;;9.10;5.60;;;;;;;27.38;38.75;96068.06;4983571;28;20478;-73
2023/06/19 10:52:45;;;;;;;10.77;6.40;;;;;;;27.34;38.99;96070.31;4986166;28;20558;-73
2023/06/19 10:55:14;;;;;;;7.03;5.60;;;;;;;27.75;38.58;96063.72;4986172;28;20979;-73
2023/06/19 10:57:44;;;;;;;8.80;6.30;;;;;;;27.71;39.13;96063.28;4989048;28;20598;-73
2023/06/19 11:00:12;;;;;;;6.40;5.80;;;;;;;27.85;39.04;96056.25;4985121;28;20447;-71
2023/06/19 11:02:39;;;;;;;6.83;6.23;;;;;;;28.25;38.36;96043.34;4975005;28;20521;-71
2023/06/19 11:05:05;;;;;;;7.00;6.17;;;;;;;28.01;38.31;96047.16;4978430;28;20431;-70
2023/06/19 11:07:32;;;;;;;9.07;6.40;;;;;;;28.01;38.38;96049.84;4979943;28;20432;-71
2023/06/19 11:09:57;;;;;;;8.87;5.30;;;;;;;27.65;38.55;96034.34;4977457;28;20514;-71
2023/06/19 11:12:23;;;;;;;7.03;5.37;;;;;;;27.74;38.71;96033.25;4984648;28;20538;-71
2023/06/19 11:14:49;;;;;;;10.87;6.67;;;;;;;27.93;38.31;96022.97;4983374;28;20725;-71
2023/06/19 11:17:15;;;;;;;10.70;6.30;;;;;;;27.80;38.25;96028.97;4981840;28;20180;-73
2023/06/19 11:19:43;;;;;;;7.20;5.47;;;;;;;27.61;38.01;96027.63;4982896;28;21045;-71